Time;durP1;ratioP1;P1;durP2;ratioP2;P2;SDS_P1;SDS_P2;PMS_P1;PMS_P2;Temp;Humidity;BMP_temperature;BMP_pressure;BME280_temperature;BME280_humidity;BME280_pressure;Samples;Min_cycle;Max_cycle;Signal;HPM_P1;HPM_P2
2022/04/29 00:01:28;;;;;;;10.87;4.77;;;8.80;99.90;;;;;;5055425;28;20180;-67
2022/04/29 00:03:54;;;;;;;8.93;5.50;;;8.80;99.90;;;;;;5056609;28;20196;-66
2022/04/29 00:06:20;;;;;;;9.17;5.30;;;8.60;99.90;;;;;;5057499;28;20168;-65
2022/04/29 00:08:46;;;;;;;6.80;5.20;;;8.70;99.90;;;;;;5056630;28;20176;-65
2022/04/29 00:11:12;;;;;;;8.63;5.80;;;8.70;99.90;;;;;;5058946;28;20226;-66
2022/04/29 00:13:37;;;;;;;9.57;5.73;;;8.70;99.90;;;;;;5058094;28;20153;-66
2022/04/29 00:16:05;;;;;;;8.20;5.13;;;8.80;99.90;;;;;;5058341;28;20263;-64
2022/04/29 00:18:31;;;;;;;6.83;5.13;;;8.70;99.90;;;;;;5057616;28;20174;-65
2022/04/29 00:20:56;;;;;;;6.63;5.20;;;8.70;99.90;;;;;;5054480;28;20179;-66
2022/04/29 00:23:22;;;;;;;10.17;5.83;;;8.60;99.90;;;;;;5053748;28;20584;-67
2022/04/29 00:25:48;;;;;;;6.77;5.10;;;8.50;99.90;;;;;;5053862;28;20164;-66
2022/04/29 00:28:14;;;;;;;8.53;5.63;;;8.50;99.90;;;;;;5054492;28;20170;-65
2022/04/29 00:30:39;;;;;;;8.00;5.50;;;8.40;99.90;;;;;;5053628;28;20164;-66
2022/04/29 00:33:05;;;;;;;7.63;5.40;;;8.40;99.90;;;;;;5053546;28;20489;-66
2022/04/29 00:35:31;;;;;;;7.77;5.10;;;8.40;99.90;;;;;;5053856;28;20227;-66
2022/04/29 00:37:57;;;;;;;6.20;5.23;;;8.30;99.90;;;;;;5053528;28;20167;-66
2022/04/29 00:40:26;;;;;;;8.07;5.70;;;8.30;99.90;;;;;;5053739;28;20545;-64
2022/04/29 00:42:52;;;;;;;8.43;5.17;;;8.20;99.90;;;;;;5053149;28;20627;-66
2022/04/29 00:45:20;;;;;;;8.20;6.27;;;8.30;99.90;;;;;;5053493;28;20168;-66
2022/04/29 00:47:47;;;;;;;10.90;6.53;;;8.30;99.90;;;;;;5053753;28;20592;-66
2022/04/29 00:50:16;;;;;;;8.53;5.60;;;8.30;99.90;;;;;;5053661;28;20295;-67
2022/04/29 00:52:45;;;;;;;7.80;5.60;;;8.20;99.90;;;;;;5071010;28;20276;-67
2022/04/29 00:55:13;;;;;;;10.53;5.53;;;8.30;99.90;;;;;;5074036;28;20754;-66
2022/04/29 00:57:50;;;;;;;8.57;5.83;;;8.30;99.90;;;;;;5077932;28;20172;-65
2022/04/29 01:00:18;;;;;;;7.80;6.03;;;8.30;99.90;;;;;;5080784;28;20210;-66
2022/04/29 01:02:47;;;;;;;7.73;5.77;;;8.40;99.90;;;;;;5080029;28;20603;-67
2022/04/29 01:05:22;;;;;;;10.00;5.97;;;8.40;99.90;;;;;;5078055;28;20255;-67
2022/04/29 01:07:48;;;;;;;8.00;5.50;;;8.30;99.90;;;;;;5076901;28;20191;-65
2022/04/29 01:10:16;;;;;;;7.80;5.60;;;8.10;99.90;;;;;;5076620;28;20170;-67
2022/04/29 01:12:43;;;;;;;7.93;6.17;;;8.10;99.90;;;;;;5076869;28;20170;-66
2022/04/29 01:15:14;;;;;;;11.13;5.40;;;8.10;99.90;;;;;;5076463;28;20547;-66
2022/04/29 01:17:43;;;;;;;11.17;6.57;;;8.10;99.90;;;;;;5076488;28;20207;-67
2022/04/29 01:20:11;;;;;;;8.57;5.90;;;8.00;99.90;;;;;;5076793;28;20160;-65
2022/04/29 01:22:37;;;;;;;9.00;6.03;;;8.00;99.90;;;;;;5077073;28;20560;-66
2022/04/29 01:25:03;;;;;;;9.27;5.73;;;8.10;99.90;;;;;;5076583;28;20164;-65
2022/04/29 01:27:29;;;;;;;9.20;6.47;;;8.10;99.90;;;;;;5076915;28;20214;-66
2022/04/29 01:30:00;;;;;;;9.37;5.90;;;8.00;99.90;;;;;;5076629;28;20659;-65
2022/04/29 01:32:29;;;;;;;8.87;5.63;;;7.80;99.90;;;;;;5076327;28;20526;-66
2022/04/29 01:34:54;;;;;;;10.43;6.10;;;7.80;99.90;;;;;;5076261;28;20170;-67
2022/04/29 01:37:20;;;;;;;11.33;6.47;;;7.80;99.90;;;;;;5076375;28;20516;-66
2022/04/29 01:39:45;;;;;;;7.40;5.60;;;7.80;99.90;;;;;;5076336;28;20224;-65
2022/04/29 01:42:11;;;;;;;10.00;6.50;;;7.60;99.90;;;;;;5076100;28;20170;-65
2022/04/29 01:44:37;;;;;;;9.60;6.83;;;7.70;99.90;;;;;;5076298;28;20163;-66
2022/04/29 01:47:02;;;;;;;13.80;6.90;;;7.80;99.90;;;;;;5076793;28;20164;-66
2022/04/29 01:49:28;;;;;;;8.93;6.03;;;7.70;99.90;;;;;;5079249;28;20250;-66
2022/04/29 01:51:56;;;;;;;10.60;6.43;;;7.70;99.90;;;;;;5079472;28;20230;-65
2022/04/29 01:54:21;;;;;;;9.00;6.33;;;7.70;99.90;;;;;;5076400;28;20326;-65
2022/04/29 01:56:47;;;;;;;10.77;6.73;;;7.60;99.90;;;;;;5075904;28;20191;-64
2022/04/29 01:59:13;;;;;;;10.13;6.70;;;7.60;99.90;;;;;;5076701;28;20189;-66
2022/04/29 02:01:39;;;;;;;9.97;6.53;;;7.70;99.90;;;;;;5075879;28;20702;-66
2022/04/29 02:04:05;;;;;;;11.13;6.57;;;7.60;99.90;;;;;;5075859;28;20211;-66
2022/04/29 02:06:31;;;;;;;10.23;6.37;;;7.50;99.90;;;;;;5075365;28;20259;-66
2022/04/29 02:08:56;;;;;;;9.97;7.67;;;7.50;99.90;;;;;;5075234;28;20158;-66
2022/04/29 02:11:22;;;;;;;10.37;7.57;;;7.30;99.90;;;;;;5075513;28;20165;-66
2022/04/29 02:13:48;;;;;;;12.13;7.90;;;7.20;99.90;;;;;;5075497;28;20162;-65
2022/04/29 02:16:14;;;;;;;7.43;6.10;;;7.30;99.90;;;;;;5075949;28;20278;-66
2022/04/29 02:18:40;;;;;;;7.30;6.20;;;7.30;99.90;;;;;;5075480;28;20177;-66
2022/04/29 02:21:07;;;;;;;8.77;6.17;;;7.30;99.90;;;;;;5075675;28;20491;-66
2022/04/29 02:23:32;;;;;;;11.90;8.57;;;7.30;99.90;;;;;;5076352;28;20199;-65
2022/04/29 02:25:58;;;;;;;11.43;8.57;;;7.30;99.90;;;;;;5077923;28;20167;-66
2022/04/29 02:28:24;;;;;;;14.13;8.40;;;7.20;99.90;;;;;;5075694;28;20191;-66
2022/04/29 02:30:50;;;;;;;12.17;8.00;;;7.30;99.90;;;;;;5075027;28;20183;-66
2022/04/29 02:33:15;;;;;;;10.57;7.70;;;7.30;99.90;;;;;;5075171;28;20583;-66
2022/04/29 02:35:41;;;;;;;9.87;6.73;;;7.30;99.90;;;;;;5057268;28;20199;-67
2022/04/29 02:38:07;;;;;;;9.87;6.77;;;7.20;99.90;;;;;;5074984;28;20167;-66
2022/04/29 02:40:32;;;;;;;8.73;6.47;;;7.30;99.90;;;;;;5075632;28;20238;-65
2022/04/29 02:42:58;;;;;;;11.03;7.23;;;7.20;99.90;;;;;;5075618;28;20220;-66
2022/04/29 02:45:23;;;;;;;15.07;7.50;;;7.20;99.90;;;;;;5075395;28;20168;-67
2022/04/29 02:47:49;;;;;;;9.60;7.17;;;7.30;99.90;;;;;;5074995;28;20176;-65
2022/04/29 02:50:15;;;;;;;13.13;7.30;;;7.10;99.90;;;;;;5075010;28;20183;-66
2022/04/29 02:52:41;;;;;;;8.83;7.50;;;7.20;99.90;;;;;;5075105;28;20688;-65
2022/04/29 02:55:07;;;;;;;11.23;6.03;;;7.10;99.90;;;;;;5057624;28;20209;-66
2022/04/29 02:57:33;;;;;;;7.27;5.50;;;7.10;99.90;;;;;;5064519;28;20621;-66
2022/04/29 02:59:58;;;;;;;13.17;7.70;;;7.10;99.90;;;;;;5090244;28;20194;-68
2022/04/29 03:02:24;;;;;;;8.77;6.50;;;7.00;99.90;;;;;;5088731;28;20173;-67
2022/04/29 03:04:49;;;;;;;8.27;5.80;;;7.10;99.90;;;;;;5084741;28;20234;-68
2022/04/29 03:07:15;;;;;;;14.30;6.90;;;7.10;99.90;;;;;;5086586;28;20232;-68
2022/04/29 03:09:40;;;;;;;14.47;6.63;;;7.10;99.90;;;;;;5070114;28;20176;-66
2022/04/29 03:12:12;;;;;;;11.03;8.00;;;7.10;99.90;;;;;;5084285;28;20166;-68
2022/04/29 03:14:38;;;;;;;11.77;8.00;;;7.10;99.90;;;;;;5079319;28;20185;-66
2022/04/29 03:17:04;;;;;;;14.10;8.10;;;6.90;99.90;;;;;;5084373;28;20194;-68
2022/04/29 03:19:29;;;;;;;12.83;6.87;;;6.90;99.90;;;;;;5084292;28;20189;-67
2022/04/29 03:21:55;;;;;;;10.93;8.33;;;6.80;99.90;;;;;;5081052;28;20171;-65
2022/04/29 03:24:21;;;;;;;13.87;6.97;;;6.90;99.90;;;;;;5077354;28;20174;-68
2022/04/29 03:26:47;;;;;;;11.00;7.10;;;6.80;99.90;;;;;;5075251;28;20172;-66
2022/04/29 03:29:13;;;;;;;9.37;7.23;;;6.80;99.90;;;;;;5057179;28;20511;-67
2022/04/29 03:31:39;;;;;;;10.70;6.73;;;6.80;99.90;;;;;;5074687;28;20156;-66
2022/04/29 03:34:04;;;;;;;11.30;7.20;;;6.70;99.90;;;;;;5058052;28;20169;-66
2022/04/29 03:36:30;;;;;;;12.57;8.97;;;6.50;99.90;;;;;;5074654;28;20653;-66
2022/04/29 03:38:56;;;;;;;14.20;8.50;;;6.70;99.90;;;;;;5074367;28;20162;-65
2022/04/29 03:41:22;;;;;;;12.83;9.63;;;6.60;99.90;;;;;;5073922;28;20166;-66
2022/04/29 03:43:48;;;;;;;12.07;8.20;;;6.70;99.90;;;;;;5074633;28;20173;-64
2022/04/29 03:46:15;;;;;;;12.57;8.77;;;6.60;99.90;;;;;;5073845;28;20167;-67
2022/04/29 03:51:25;;;;;;;12.70;8.77;;;6.80;99.90;;;;;;5073949;28;20234;-65
2022/04/29 03:53:50;;;;;;;13.93;9.33;;;6.80;99.90;;;;;;5074092;28;20160;-65
2022/04/29 03:56:17;;;;;;;11.07;8.53;;;6.70;99.90;;;;;;5073818;28;20198;-65
2022/04/29 03:58:43;;;;;;;16.17;9.03;;;6.60;99.90;;;;;;5073637;28;20160;-66
2022/04/29 04:01:10;;;;;;;13.13;8.43;;;6.60;99.90;;;;;;5073758;28;20225;-66
2022/04/29 04:03:35;;;;;;;13.03;8.40;;;6.40;99.90;;;;;;5056959;28;20176;-68
2022/04/29 04:08:46;;;;;;;13.23;8.53;;;6.50;99.90;;;;;;5053562;28;20157;-66
2022/04/29 04:11:11;;;;;;;11.23;6.80;;;6.50;99.90;;;;;;5053311;28;20167;-66
2022/04/29 04:13:37;;;;;;;10.97;7.13;;;6.40;99.90;;;;;;5053582;28;20160;-67
2022/04/29 04:16:03;;;;;;;12.53;8.97;;;6.50;99.90;;;;;;5053326;28;20192;-66
2022/04/29 04:18:28;;;;;;;13.67;8.53;;;6.50;99.90;;;;;;5053391;28;20221;-65
2022/04/29 04:20:54;;;;;;;12.50;8.80;;;6.50;99.90;;;;;;5053261;28;20172;-65
2022/04/29 04:23:20;;;;;;;15.77;7.43;;;6.50;99.90;;;;;;5053508;28;20623;-65
2022/04/29 04:25:45;;;;;;;11.63;7.83;;;6.50;99.90;;;;;;5053778;28;20199;-65
2022/04/29 04:28:13;;;;;;;13.30;8.53;;;6.60;99.90;;;;;;5053502;28;20283;-66
2022/04/29 04:30:39;;;;;;;13.33;9.30;;;6.50;99.90;;;;;;5055577;28;20243;-65
2022/04/29 04:33:05;;;;;;;16.07;10.63;;;6.50;99.90;;;;;;5058099;28;20164;-66
2022/04/29 04:35:30;;;;;;;13.53;8.67;;;6.40;99.90;;;;;;5058737;28;20249;-65
2022/04/29 04:37:56;;;;;;;18.57;10.53;;;6.40;99.90;;;;;;5063241;28;20171;-66
2022/04/29 04:40:22;;;;;;;13.03;9.17;;;6.50;99.90;;;;;;5059567;28;20600;-66
2022/04/29 04:42:48;;;;;;;14.20;10.43;;;6.50;99.90;;;;;;5058411;28;20209;-67
2022/04/29 04:45:14;;;;;;;14.97;9.23;;;6.60;99.90;;;;;;5057836;28;20167;-66
2022/04/29 04:47:40;;;;;;;13.90;8.67;;;6.70;99.90;;;;;;5057972;28;20167;-66
2022/04/29 04:50:06;;;;;;;12.50;9.20;;;6.70;99.90;;;;;;5057478;28;20183;-66
2022/04/29 04:52:32;;;;;;;15.10;10.03;;;6.70;99.90;;;;;;5058241;28;20227;-66
2022/04/29 04:54:57;;;;;;;12.77;8.40;;;6.70;99.90;;;;;;5057592;28;20226;-66
2022/04/29 04:57:23;;;;;;;12.90;8.60;;;6.80;99.90;;;;;;5057198;28;20511;-65
2022/04/29 04:59:49;;;;;;;11.03;8.40;;;7.10;99.90;;;;;;5039347;28;20204;-65
2022/04/29 05:02:14;;;;;;;13.37;8.47;;;7.40;99.90;;;;;;5057253;28;20171;-64
2022/04/29 05:04:40;;;;;;;10.90;7.20;;;7.80;99.90;;;;;;5056693;28;20164;-65
2022/04/29 05:07:05;;;;;;;11.50;8.20;;;7.50;99.90;;;;;;5057328;28;20174;-65
2022/04/29 05:09:31;;;;;;;10.33;7.10;;;7.50;99.90;;;;;;5057846;28;20177;-65
2022/04/29 05:11:57;;;;;;;12.17;7.80;;;7.50;99.90;;;;;;5057353;28;20168;-66
2022/04/29 05:14:22;;;;;;;12.70;7.87;;;7.50;99.90;;;;;;5053779;28;20649;-69
2022/04/29 05:16:49;;;;;;;18.23;5.97;;;7.50;99.90;;;;;;5058163;28;20207;-66
2022/04/29 05:19:14;;;;;;;9.47;5.83;;;7.70;99.90;;;;;;5059043;28;20230;-66
2022/04/29 05:21:40;;;;;;;6.73;4.83;;;7.80;99.90;;;;;;5066431;28;20251;-66
2022/04/29 05:24:06;;;;;;;12.87;7.87;;;7.80;99.90;;;;;;5064982;28;20644;-67
2022/04/29 05:26:31;;;;;;;8.63;6.70;;;7.80;99.90;;;;;;5057401;28;20163;-65
2022/04/29 05:28:57;;;;;;;9.33;5.97;;;7.70;99.90;;;;;;5057340;28;20230;-66
2022/04/29 05:31:23;;;;;;;10.37;7.50;;;7.80;99.90;;;;;;5056854;28;20166;-65
2022/04/29 05:33:48;;;;;;;10.83;6.67;;;7.80;99.90;;;;;;5056396;28;20188;-64
2022/04/29 05:36:14;;;;;;;9.50;6.53;;;7.70;99.90;;;;;;5056692;28;20197;-66
2022/04/29 05:44:09;;;;;;;9.73;6.27;;;7.70;99.90;;;;;;5056650;28;20243;-64
2022/04/29 05:46:35;;;;;;;12.90;6.50;;;7.80;99.90;;;;;;5056510;28;20194;-66
2022/04/29 05:49:04;;;;;;;9.40;6.43;;;7.90;99.90;;;;;;5056699;28;20166;-66
2022/04/29 05:51:30;;;;;;;9.43;7.00;;;7.90;99.90;;;;;;5038076;28;20243;-66
2022/04/29 05:53:56;;;;;;;8.57;6.23;;;8.00;99.90;;;;;;5056379;28;20153;-66
2022/04/29 05:56:21;;;;;;;11.77;6.87;;;8.10;99.90;;;;;;5056860;28;20556;-66
2022/04/29 05:58:47;;;;;;;10.80;6.57;;;8.10;99.90;;;;;;5058299;28;20164;-66
2022/04/29 06:01:12;;;;;;;11.37;7.30;;;8.10;99.90;;;;;;5059721;28;20571;-66
2022/04/29 06:03:38;;;;;;;10.47;6.70;;;8.20;99.90;;;;;;5044901;28;20689;-65
2022/04/29 06:06:04;;;;;;;11.23;7.27;;;8.30;99.90;;;;;;5062577;28;20167;-66
2022/04/29 06:08:29;;;;;;;10.53;7.20;;;8.40;99.90;;;;;;5042724;28;20658;-65
2022/04/29 06:10:55;;;;;;;9.50;6.60;;;8.50;99.90;;;;;;5061030;28;20168;-65
2022/04/29 06:13:21;;;;;;;9.93;6.57;;;8.50;99.90;;;;;;5060603;28;20226;-70
2022/04/29 06:15:46;;;;;;;9.03;6.20;;;8.60;99.90;;;;;;5061507;28;20651;-66
2022/04/29 06:18:12;;;;;;;9.57;6.47;;;8.70;99.90;;;;;;5040673;28;20180;-66
2022/04/29 06:20:38;;;;;;;11.40;6.07;;;8.80;99.90;;;;;;5038602;28;20190;-66
2022/04/29 06:23:04;;;;;;;9.87;7.20;;;9.10;99.90;;;;;;5055823;28;20159;-66
2022/04/29 06:25:29;;;;;;;8.67;6.77;;;9.30;99.90;;;;;;5056014;28;20703;-67
2022/04/29 06:27:55;;;;;;;10.57;6.60;;;9.50;99.90;;;;;;5055673;28;20164;-66
2022/04/29 06:30:20;;;;;;;10.60;6.67;;;9.30;99.90;;;;;;5055987;28;20576;-66
2022/04/29 06:32:46;;;;;;;10.97;6.70;;;9.50;99.90;;;;;;5055822;28;20172;-65
2022/04/29 06:35:12;;;;;;;9.93;6.60;;;9.70;99.90;;;;;;5055464;28;20461;-65
2022/04/29 06:37:38;;;;;;;9.43;7.07;;;9.90;99.90;;;;;;5055439;28;20252;-66
2022/04/29 06:40:04;;;;;;;9.50;6.83;;;10.20;99.90;;;;;;5056492;28;20175;-66
2022/04/29 06:42:29;;;;;;;10.03;7.17;;;10.10;99.90;;;;;;5055800;28;20625;-66
2022/04/29 06:44:55;;;;;;;12.03;7.00;;;10.20;99.90;;;;;;5037118;28;20182;-66
2022/04/29 06:47:21;;;;;;;9.33;7.40;;;10.20;99.90;;;;;;5055610;28;20592;-66
2022/04/29 06:49:47;;;;;;;17.43;7.77;;;10.40;99.90;;;;;;5037758;28;20207;-66
2022/04/29 06:52:12;;;;;;;10.23;8.13;;;10.50;99.90;;;;;;5055456;28;20224;-66
2022/04/29 06:54:38;;;;;;;11.80;7.00;;;10.20;99.90;;;;;;5054929;28;20156;-65
2022/04/29 06:57:05;;;;;;;10.70;7.30;;;10.30;99.90;;;;;;5061035;28;20203;-66
2022/04/29 06:59:31;;;;;;;11.13;7.00;;;10.50;99.90;;;;;;5059599;28;20176;-66
2022/04/29 07:01:57;;;;;;;9.37;7.20;;;10.60;99.90;;;;;;5062410;28;20156;-66
2022/04/29 07:04:28;;;;;;;11.77;7.70;;;10.40;99.90;;;;;;5059226;28;20174;-66
2022/04/29 07:06:54;;;;;;;10.30;7.17;;;10.60;99.90;;;;;;5054799;28;20160;-65
2022/04/29 07:09:20;;;;;;;12.33;8.40;;;10.60;99.90;;;;;;5037246;28;20192;-66
2022/04/29 07:11:46;;;;;;;16.63;8.00;;;10.90;99.90;;;;;;5055476;28;20175;-66
2022/04/29 07:14:13;;;;;;;11.67;6.97;;;10.80;99.90;;;;;;5055131;28;20168;-68
2022/04/29 07:16:38;;;;;;;13.70;7.43;;;10.90;99.90;;;;;;5055670;28;20504;-66
2022/04/29 07:19:04;;;;;;;14.97;7.70;;;11.10;99.90;;;;;;5038675;28;20223;-65
2022/04/29 07:21:30;;;;;;;10.70;7.43;;;11.30;99.90;;;;;;5055639;28;20537;-67
2022/04/29 07:23:55;;;;;;;10.10;7.50;;;11.60;99.90;;;;;;5056807;28;20171;-66
2022/04/29 07:26:21;;;;;;;11.03;7.53;;;12.00;99.90;;;;;;5057407;28;20171;-65
2022/04/29 07:28:46;;;;;;;11.87;7.97;;;12.20;99.90;;;;;;5040950;28;20175;-66
2022/04/29 07:31:12;;;;;;;14.03;7.30;;;12.00;99.90;;;;;;5056096;28;20600;-66
2022/04/29 07:33:38;;;;;;;11.47;7.60;;;12.10;99.90;;;;;;5054763;28;20167;-67
2022/04/29 07:41:44;;;;;;;9.37;6.67;;;12.80;99.90;;;;;;5054615;28;20199;-67
2022/04/29 07:44:10;;;;;;;13.60;7.77;;;13.00;99.90;;;;;;5037216;28;20284;-67
2022/04/29 07:46:36;;;;;;;12.13;7.23;;;13.00;99.90;;;;;;5054538;28;20165;-66
2022/04/29 07:49:03;;;;;;;10.10;7.17;;;13.00;99.90;;;;;;5036373;28;20256;-66
2022/04/29 07:51:29;;;;;;;13.80;6.93;;;13.00;99.90;;;;;;5033991;28;20232;-67
2022/04/29 07:53:55;;;;;;;13.07;7.33;;;13.40;99.90;;;;;;5035465;28;20235;-67
2022/04/29 07:56:21;;;;;;;11.47;6.70;;;13.60;99.90;;;;;;5035062;28;20203;-66
2022/04/29 07:58:46;;;;;;;9.67;7.13;;;13.50;99.90;;;;;;5034894;28;20589;-66
2022/04/29 08:01:12;;;;;;;14.13;6.80;;;13.50;99.90;;;;;;5034443;28;20565;-69
2022/04/29 08:03:38;;;;;;;12.20;6.90;;;13.60;99.90;;;;;;5034624;28;20196;-67
2022/04/29 08:06:06;;;;;;;9.17;6.77;;;13.70;99.90;;;;;;5033798;28;20597;-66
2022/04/29 08:08:33;;;;;;;10.17;6.97;;;13.80;99.90;;;;;;5034003;28;20217;-65
2022/04/29 08:10:58;;;;;;;10.07;6.53;;;13.90;99.90;;;;;;5034615;28;20200;-66
2022/04/29 08:13:24;;;;;;;10.67;6.50;;;13.70;99.90;;;;;;5034762;28;20211;-67
2022/04/29 08:15:50;;;;;;;10.97;7.13;;;13.80;99.90;;;;;;5038872;28;20197;-67
2022/04/29 08:18:16;;;;;;;14.60;6.77;;;13.70;99.90;;;;;;5042757;28;20165;-66
2022/04/29 08:20:43;;;;;;;12.97;6.83;;;13.80;99.90;;;;;;5043852;28;20208;-67
2022/04/29 08:23:09;;;;;;;8.77;6.57;;;13.90;99.90;;;;;;5038558;28;20160;-66
2022/04/29 08:25:35;;;;;;;13.10;7.60;;;14.00;99.90;;;;;;5035876;28;20177;-66
2022/04/29 08:28:01;;;;;;;10.40;6.43;;;14.30;99.90;;;;;;5034268;28;20187;-68
2022/04/29 08:30:30;;;;;;;9.93;6.67;;;14.30;99.90;;;;;;5033692;28;20593;-66
2022/04/29 08:32:57;;;;;;;9.67;6.40;;;14.60;99.90;;;;;;5034952;28;20593;-65
2022/04/29 08:35:23;;;;;;;8.10;6.23;;;14.60;99.90;;;;;;5033610;28;20275;-65
2022/04/29 08:37:49;;;;;;;10.23;6.70;;;14.50;99.90;;;;;;5033564;28;20195;-66
2022/04/29 08:40:16;;;;;;;11.73;6.93;;;14.70;99.90;;;;;;5034126;28;20164;-66
2022/04/29 08:42:42;;;;;;;9.57;6.67;;;14.60;99.90;;;;;;5043281;28;20183;-67
2022/04/29 08:45:14;;;;;;;14.50;7.67;;;14.80;99.90;;;;;;5053491;28;20163;-67
2022/04/29 08:47:44;;;;;;;11.73;6.60;;;15.00;99.90;;;;;;5053542;28;20164;-65
2022/04/29 08:50:16;;;;;;;12.27;7.40;;;15.40;99.90;;;;;;5053813;28;20200;-66
2022/04/29 08:52:43;;;;;;;11.23;5.97;;;15.60;99.90;;;;;;5073889;28;20242;-67
2022/04/29 09:00:41;;;;;;;12.80;5.80;;;15.80;99.70;;;;;;5068927;28;20266;-66
2022/04/29 09:03:11;;;;;;;12.37;6.13;;;15.90;99.30;;;;;;5058521;28;20181;-66
2022/04/29 09:05:37;;;;;;;8.67;5.47;;;15.70;97.40;;;;;;5058048;28;20511;-66
2022/04/29 09:08:04;;;;;;;10.97;6.43;;;15.80;95.80;;;;;;5061590;28;20169;-66
2022/04/29 09:10:35;;;;;;;9.70;5.33;;;16.00;95.10;;;;;;5059376;28;20161;-66
2022/04/29 09:13:24;;;;;;;6.30;4.20;;;16.20;92.40;;;;;;5046974;28;20186;-67
2022/04/29 09:15:58;;;;;;;14.77;4.67;;;15.90;90.70;;;;;;5076650;28;20548;-66
2022/04/29 09:18:41;;;;;;;15.45;8.25;;;16.00;91.90;;;;;;5080329;28;20160;-66
2022/04/29 09:21:25;;;;;;;15.53;5.60;;;16.30;89.40;;;;;;5083109;28;20246;-66
2022/04/29 09:23:56;;;;;;;9.77;4.93;;;16.40;88.10;;;;;;5086075;28;20172;-66
2022/04/29 09:26:22;;;;;;;8.18;4.53;;;16.30;85.10;;;;;;5084466;28;20276;-67
2022/04/29 09:28:49;;;;;;;7.15;5.00;;;16.60;82.80;;;;;;5084961;28;20170;-66
2022/04/29 09:31:15;;;;;;;8.68;4.32;;;16.40;77.90;;;;;;5078410;28;20250;-67
2022/04/29 09:33:51;;;;;;;8.40;4.55;;;16.50;78.50;;;;;;5076839;28;20163;-67
2022/04/29 09:36:25;;;;;;;7.93;4.78;;;17.00;79.30;;;;;;5076727;28;20195;-65
2022/04/29 09:42:16;;;;;;;8.07;4.80;;;17.50;77.90;;;;;;5076358;28;20182;-66
2022/04/29 09:44:42;;;;;;;6.07;4.72;;;17.50;73.90;;;;;;5074081;28;20192;-67
2022/04/29 09:47:16;;;;;;;5.35;3.80;;;17.40;73.80;;;;;;5058372;28;20656;-68
2022/04/29 09:49:55;;;;;;;8.98;4.55;;;17.80;68.50;;;;;;5058032;28;20579;-69
2022/04/29 09:52:23;;;;;;;6.38;3.95;;;18.00;68.90;;;;;;5076124;28;20223;-67
2022/04/29 09:54:49;;;;;;;13.50;3.45;;;18.00;67.60;;;;;;5075994;28;20155;-65
2022/04/29 09:57:27;;;;;;;7.75;4.20;;;18.10;66.10;;;;;;5076520;28;20278;-67
2022/04/29 09:59:58;;;;;;;6.25;3.50;;;18.30;65.50;;;;;;5075809;28;20615;-68
2022/04/29 10:02:26;;;;;;;6.25;3.63;;;18.00;63.70;;;;;;5075919;28;20155;-67
2022/04/29 10:04:54;;;;;;;6.20;4.10;;;18.10;64.40;;;;;;5076049;28;20592;-66
2022/04/29 10:07:21;;;;;;;7.25;3.45;;;17.80;64.50;;;;;;5075747;28;20159;-67
2022/04/29 10:09:51;;;;;;;10.93;4.13;;;17.60;63.90;;;;;;5076168;28;20175;-66
2022/04/29 10:12:19;;;;;;;16.42;4.10;;;17.50;62.50;;;;;;5076824;28;20187;-70
2022/04/29 10:14:47;;;;;;;6.10;3.90;;;17.90;76.70;;;;;;5058822;28;20612;-71
2022/04/29 10:23:12;;;;;;;6.57;3.70;;;18.30;68.10;;;;;;5076087;28;20611;-67
2022/04/29 10:25:46;;;;;;;5.90;3.58;;;18.70;62.60;;;;;;5075856;28;20160;-68
2022/04/29 10:28:17;;;;;;;7.00;4.15;;;18.40;61.50;;;;;;5074541;28;20223;-68
2022/04/29 10:30:43;;;;;;;5.82;3.65;;;18.40;61.10;;;;;;5075182;28;20551;-67
2022/04/29 10:33:13;;;;;;;12.30;4.20;;;18.50;60.50;;;;;;5075045;28;20214;-67
2022/04/29 10:35:49;;;;;;;6.07;4.28;;;18.60;60.50;;;;;;5075856;28;20541;-66
2022/04/29 10:38:15;;;;;;;8.23;5.07;;;18.70;61.10;;;;;;5075966;28;20289;-66
2022/04/29 10:40:42;;;;;;;9.82;5.25;;;18.60;60.10;;;;;;5075672;28;20200;-67
2022/04/29 10:43:09;;;;;;;10.27;4.13;;;18.80;59.60;;;;;;5075055;28;20163;-68
2022/04/29 10:45:55;;;;;;;7.32;4.32;;;18.90;59.70;;;;;;5074958;28;20163;-67
2022/04/29 10:48:32;;;;;;;5.28;4.10;;;18.90;58.10;;;;;;5057116;28;20187;-67
2022/04/29 10:51:07;;;;;;;5.80;3.90;;;18.80;58.50;;;;;;5075491;28;20198;-67
2022/04/29 10:53:41;;;;;;;7.35;3.80;;;18.60;58.10;;;;;;5075751;28;20246;-66
2022/04/29 10:56:25;;;;;;;10.05;4.45;;;18.80;57.30;;;;;;5075459;28;20203;-66
2022/04/29 10:58:51;;;;;;;5.85;4.10;;;18.70;56.30;;;;;;5057421;28;20179;-67
2022/04/29 11:01:16;;;;;;;6.03;3.47;;;18.70;56.20;;;;;;5075245;28;20251;-67
2022/04/29 11:03:45;;;;;;;6.78;4.30;;;19.00;56.50;;;;;;5075416;28;20170;-70
2022/04/29 11:06:15;;;;;;;5.35;3.58;;;19.20;56.70;;;;;;5075606;28;20167;-66
2022/04/29 11:08:43;;;;;;;5.57;3.22;;;18.80;54.90;;;;;;5076393;28;20160;-68
2022/04/29 11:11:09;;;;;;;7.07;3.75;;;18.90;55.40;;;;;;5058095;28;20179;-66
2022/04/29 11:13:42;;;;;;;14.80;10.65;;;18.90;54.60;;;;;;5079574;28;20181;-76
2022/04/29 11:16:13;;;;;;;25.23;9.88;;;19.40;62.40;;;;;;5079223;28;20191;-68
2022/04/29 11:18:41;;;;;;;10.38;4.70;;;19.30;56.80;;;;;;5077529;28;20156;-66
2022/04/29 11:26:50;;;;;;;6.22;3.45;;;18.90;54.10;;;;;;5074034;28;20665;-67
2022/04/29 11:29:17;;;;;;;5.07;3.83;;;19.10;53.90;;;;;;5074723;28;20298;-66
2022/04/29 11:31:43;;;;;;;4.70;3.50;;;19.20;52.90;;;;;;5074868;28;20159;-67
2022/04/29 11:34:14;;;;;;;5.22;3.30;;;19.10;53.10;;;;;;5074429;28;20250;-65
2022/04/29 11:36:42;;;;;;;5.50;3.38;;;18.90;52.90;;;;;;5074646;28;20191;-67
2022/04/29 11:39:09;;;;;;;5.18;3.47;;;18.80;53.30;;;;;;5074110;28;20160;-68
2022/04/29 11:41:34;;;;;;;4.15;3.25;;;18.60;53.10;;;;;;5075701;28;20162;-66
2022/04/29 11:44:02;;;;;;;4.18;3.38;;;19.00;53.30;;;;;;5073810;28;20254;-66
2022/04/29 11:46:28;;;;;;;5.35;4.20;;;18.80;52.50;;;;;;5056307;28;20175;-66
2022/04/29 11:49:00;;;;;;;8.82;4.05;;;18.90;54.00;;;;;;5073894;28;20510;-67
2022/04/29 11:51:27;;;;;;;5.97;4.10;;;18.70;52.50;;;;;;5056128;28;20231;-68
2022/04/29 11:54:01;;;;;;;10.30;3.85;;;18.90;53.20;;;;;;5073969;28;20487;-67
2022/04/29 11:56:35;;;;;;;6.93;3.67;;;19.30;52.40;;;;;;5074322;28;20191;-68
2022/04/29 11:59:03;;;;;;;4.90;3.60;;;19.50;51.10;;;;;;5076566;28;20213;-68
2022/04/29 12:01:30;;;;;;;5.72;3.70;;;19.60;50.60;;;;;;5075333;28;20167;-67
2022/04/29 12:03:56;;;;;;;4.93;3.85;;;19.70;49.80;;;;;;5056639;28;20284;-67
2022/04/29 12:06:21;;;;;;;7.35;3.78;;;19.10;49.20;;;;;;5073715;28;20167;-67
2022/04/29 12:08:47;;;;;;;6.13;3.97;;;18.80;50.00;;;;;;5073812;28;20168;-67
2022/04/29 12:11:31;;;;;;;10.38;4.00;;;18.90;49.80;;;;;;5074059;28;20594;-66
2022/04/29 12:14:18;;;;;;;5.70;3.63;;;19.00;50.00;;;;;;5073753;28;20182;-67
2022/04/29 12:16:45;;;;;;;6.43;3.35;;;19.10;50.20;;;;;;5073869;28;20211;-68
2022/04/29 12:19:18;;;;;;;6.10;4.03;;;19.10;50.50;;;;;;5074142;28;20172;-66
2022/04/29 12:21:55;;;;;;;7.15;3.55;;;19.40;49.90;;;;;;5074011;28;20218;-67
2022/04/29 12:24:21;;;;;;;10.98;3.08;;;19.80;49.90;;;;;;5074532;28;20191;-68
2022/04/29 12:27:06;;;;;;;6.82;4.00;;;19.90;48.50;;;;;;5073909;28;20587;-67
2022/04/29 12:29:32;;;;;;;5.40;3.47;;;19.90;47.60;;;;;;5055944;28;20171;-65
2022/04/29 12:35:10;;;;;;;20.27;7.95;;;20.10;47.90;;;;;;5076472;28;20306;-72
2022/04/29 12:37:37;;;;;;;9.55;5.40;;;20.30;57.60;;;;;;5077717;28;20167;-76
2022/04/29 12:40:09;;;;;;;6.00;3.83;;;20.10;54.60;;;;;;5077212;28;20165;-67
2022/04/29 12:42:34;;;;;;;7.78;4.25;;;19.90;49.10;;;;;;5073237;28;20152;-67
2022/04/29 12:45:22;;;;;;;4.38;3.50;;;19.70;48.50;;;;;;5073380;28;20228;-65
2022/04/29 12:47:50;;;;;;;6.15;3.92;;;20.10;47.90;;;;;;5073529;28;20151;-67
2022/04/29 12:50:31;;;;;;;6.13;3.53;;;20.30;47.60;;;;;;5073760;28;20179;-69
2022/04/29 12:53:05;;;;;;;4.72;3.22;;;20.30;47.20;;;;;;5077541;28;20595;-68
2022/04/29 12:55:44;;;;;;;7.25;3.58;;;20.20;47.20;;;;;;5077288;28;20209;-69
2022/04/29 12:58:16;;;;;;;5.30;3.30;;;20.10;46.60;;;;;;5077903;28;20230;-69
2022/04/29 13:00:52;;;;;;;6.28;3.33;;;20.60;47.50;;;;;;5077433;28;20166;-68
2022/04/29 13:03:22;;;;;;;5.25;3.30;;;20.50;46.40;;;;;;5078708;28;20159;-70
2022/04/29 13:05:49;;;;;;;10.15;5.78;;;20.70;46.80;;;;;;5078215;28;20514;-75
2022/04/29 13:08:15;;;;;;;16.13;6.60;;;20.60;50.20;;;;;;5061451;28;20172;-75
2022/04/29 13:10:52;;;;;;;22.20;10.02;;;20.20;48.90;;;;;;5060254;28;20187;-73
2022/04/29 13:13:22;;;;;;;8.82;4.88;;;20.50;50.50;;;;;;5078294;28;20547;-73
2022/04/29 13:15:48;;;;;;;13.85;6.32;;;20.80;51.00;;;;;;5078048;28;20207;-74
2022/04/29 13:18:16;;;;;;;4.72;3.42;;;20.70;48.80;;;;;;5077381;28;20237;-74
2022/04/29 13:20:42;;;;;;;8.90;4.28;;;20.80;49.80;;;;;;5059755;28;20179;-73
2022/04/29 13:23:10;;;;;;;7.80;4.00;;;20.40;48.00;;;;;;5077817;28;20163;-73
2022/04/29 13:25:36;;;;;;;6.90;3.33;;;20.50;48.10;;;;;;5077328;28;20178;-67
2022/04/29 13:28:03;;;;;;;5.75;3.53;;;20.20;47.00;;;;;;5076989;28;20178;-70